Time;durP1;ratioP1;P1;durP2;ratioP2;P2;SDS_P1;SDS_P2;PMS_P1;PMS_P2;Temp;Humidity;BMP_temperature;BMP_pressure;BME280_temperature;BME280_humidity;BME280_pressure;Samples;Min_cycle;Max_cycle;Signal;HPM_P1;HPM_P2
2023/07/30 16:23:07;;;;;;;2.30;1.38;;;;;;;29.63;36.40;100700.91;10436634;27;96591;-81
2023/07/30 16:28:11;;;;;;;1.92;1.33;;;;;;;29.53;36.94;100711.94;10441737;27;96873;-84
2023/07/30 16:33:14;;;;;;;2.33;1.70;;;;;;;29.47;37.06;100709.06;10430686;27;98351;-76
2023/07/30 16:38:20;;;;;;;2.40;1.60;;;;;;;29.35;37.10;100715.84;10422713;27;99577;-79
2023/07/30 16:43:23;;;;;;;2.13;1.45;;;;;;;29.23;37.31;100709.88;10423605;27;96829;-81
2023/07/30 16:48:26;;;;;;;2.70;1.60;;;;;;;29.19;37.15;100713.97;10454512;27;98015;-81
2023/07/30 16:53:31;;;;;;;2.47;1.50;;;;;;;29.10;38.21;100715.78;10454298;27;96813;-81
2023/07/30 16:58:34;;;;;;;2.20;1.60;;;;;;;29.02;38.14;100713.09;10454467;27;96871;-81
2023/07/30 17:03:40;;;;;;;2.65;1.52;;;;;;;28.66;38.12;100721.59;10415323;27;96687;-81
2023/07/30 17:08:45;;;;;;;2.08;1.38;;;;;;;28.68;38.98;100720.44;10412580;27;97205;-81
2023/07/30 17:13:48;;;;;;;2.80;1.58;;;;;;;28.58;38.87;100718.88;10412193;27;96685;-81
2023/07/30 17:18:52;;;;;;;2.75;1.42;;;;;;;28.51;39.58;100725.97;10412143;27;97607;-81
2023/07/30 17:23:57;;;;;;;;;;;;;;;28.42;39.47;100727.78;10411950;27;96580;-81
2023/07/30 17:29:01;;;;;;;2.55;1.40;;;;;;;28.45;40.32;100730.16;10411751;27;96753;-81
2023/07/30 17:34:06;;;;;;;2.03;1.42;;;;;;;28.38;40.36;100748.06;10386179;28;96566;-81
2023/07/30 17:39:12;;;;;;;3.00;1.58;;;;;;;28.37;40.60;100740.97;10383264;28;98473;-81
2023/07/30 17:44:16;;;;;;;2.33;1.58;;;;;;;28.21;41.39;100746.28;10383345;28;96734;-80
2023/07/30 17:49:20;;;;;;;2.25;1.42;;;;;;;27.98;41.71;100745.13;10383266;28;96898;-79
2023/07/30 17:54:24;;;;;;;1.83;1.40;;;;;;;27.81;42.23;100740.63;10383934;28;97023;-81
2023/07/30 17:59:29;;;;;;;3.05;1.45;;;;;;;27.58;41.94;100744.81;10382482;28;96848;-81
2023/07/30 18:04:32;;;;;;;2.45;1.48;;;;;;;27.37;42.50;100750.56;10383105;28;96812;-81
2023/07/30 18:09:37;;;;;;;4.45;1.58;;;;;;;27.45;43.27;100747.06;10383004;28;96709;-81
2023/07/30 18:14:40;;;;;;;3.03;1.52;;;;;;;27.12;43.36;100755.88;10382717;28;96694;-80
2023/07/30 18:19:43;;;;;;;2.15;1.40;;;;;;;27.26;43.78;100761.59;10381467;28;97260;-80
2023/07/30 18:24:48;;;;;;;3.05;1.38;;;;;;;27.18;43.99;100763.38;10382827;28;97182;-80
2023/07/30 18:29:51;;;;;;;2.28;1.30;;;;;;;27.13;43.71;100765.72;10381834;28;96867;-81
2023/07/30 18:34:55;;;;;;;1.65;1.30;;;;;;;26.95;43.89;100762.94;10381999;28;97807;-81
2023/07/30 18:39:59;;;;;;;;;;;;;;;26.77;44.45;100762.91;10382317;28;96762;-81
2023/07/30 18:45:02;;;;;;;;;;;;;;;26.68;45.00;100768.41;10381727;28;96695;-80
2023/07/30 18:50:07;;;;;;;2.33;1.35;;;;;;;26.57;45.21;100761.34;10381747;28;96871;-80
2023/07/30 18:55:13;;;;;;;3.33;1.40;;;;;;;26.42;45.25;100767.38;10381435;28;96776;-81
2023/07/30 19:00:18;;;;;;;2.47;1.48;;;;;;;26.29;45.12;100766.84;10381120;28;96675;-80
2023/07/30 19:05:22;;;;;;;3.00;1.30;;;;;;;26.17;45.65;100776.97;10381026;28;97698;-80
2023/07/30 19:10:26;;;;;;;4.17;1.70;;;;;;;26.05;45.65;100777.28;10380633;28;97542;-80
2023/07/30 19:15:31;;;;;;;2.80;1.85;;;;;;;25.74;45.12;100776.66;10381255;28;96758;-81
2023/07/30 19:20:35;;;;;;;2.03;1.52;;;;;;;25.81;45.37;100785.88;10380021;28;97427;-81
2023/07/30 19:25:46;;;;;;;2.13;1.50;;;;;;;25.68;45.45;100790.66;10380244;28;96738;-81
2023/07/30 19:30:50;;;;;;;2.97;1.52;;;;;;;25.59;45.70;100788.81;10416249;27;96664;-81
2023/07/30 19:35:53;;;;;;;4.10;1.70;;;;;;;25.57;45.75;100793.53;10420626;27;96766;-80
2023/07/30 19:41:00;;;;;;;3.95;1.60;;;;;;;25.51;46.15;100794.94;10421519;28;96933;-80
2023/07/30 19:46:12;;;;;;;4.15;1.83;;;;;;;25.39;46.06;100803.31;10421205;28;96767;-80
2023/07/30 19:51:16;;;;;;;3.10;1.52;;;;;;;25.27;46.35;100799.03;10420001;28;96664;-81
2023/07/30 19:56:21;;;;;;;;;;;;;;;25.27;46.85;100810.69;10421183;28;97568;-81
2023/07/30 20:01:24;;;;;;;4.88;1.80;;;;;;;24.90;47.33;100806.03;10420616;28;96724;-80
2023/07/30 20:06:27;;;;;;;4.03;1.87;;;;;;;24.65;48.10;100805.53;10416106;28;98350;-80
2023/07/30 20:11:32;;;;;;;3.37;1.60;;;;;;;24.69;48.21;100820.44;10379322;28;97570;-81
2023/07/30 20:16:36;;;;;;;3.83;1.60;;;;;;;24.57;48.63;100821.53;10378784;28;97774;-80
2023/07/30 20:21:44;;;;;;;2.67;1.40;;;;;;;24.52;48.83;100826.47;10377827;28;96711;-80
2023/07/30 20:26:49;;;;;;;3.30;1.80;;;;;;;24.57;48.86;100826.91;10380839;27;96773;-80
2023/07/30 20:31:55;;;;;;;2.60;1.70;;;;;;;24.27;49.97;100828.72;10419708;28;97128;-80
2023/07/30 20:36:58;;;;;;;3.45;1.80;;;;;;;24.45;49.68;100837.91;10419664;28;96624;-80
2023/07/30 20:42:03;;;;;;;2.77;1.57;;;;;;;24.25;50.42;100836.94;10418595;27;96801;-80
2023/07/30 20:47:08;;;;;;;4.18;1.75;;;;;;;24.15;51.06;100856.69;10419352;28;97182;-80
2023/07/30 20:52:11;;;;;;;3.15;1.75;;;;;;;24.16;51.22;100861.06;10419394;27;96777;-80
2023/07/30 20:57:16;;;;;;;2.67;1.67;;;;;;;24.05;51.79;100861.16;10418414;28;96840;-81
2023/07/30 21:02:19;;;;;;;2.60;1.60;;;;;;;23.89;52.41;100860.75;10418916;28;96596;-80
2023/07/30 21:07:23;;;;;;;3.20;1.80;;;;;;;23.83;52.81;100872.00;10422477;28;97576;-80
2023/07/30 21:12:27;;;;;;;3.90;1.67;;;;;;;23.67;53.50;100870.63;10426204;28;96755;-81
2023/07/30 21:17:31;;;;;;;4.13;1.75;;;;;;;23.51;53.93;100866.66;10425135;28;97666;-80
2023/07/30 21:22:35;;;;;;;3.27;1.93;;;;;;;23.45;54.20;100869.81;10425331;28;97245;-80
2023/07/30 21:27:41;;;;;;;;;;;;;;;23.33;55.52;100873.53;10413348;27;96863;-80
2023/07/30 21:32:45;;;;;;;2.92;1.70;;;;;;;23.23;54.89;100872.59;10424776;27;96825;-80
2023/07/30 21:37:49;;;;;;;3.38;1.90;;;;;;;23.22;55.13;100879.78;10425050;28;96838;-80
2023/07/30 21:42:53;;;;;;;2.63;1.60;;;;;;;23.04;55.96;100881.31;10425163;28;97000;-80
2023/07/30 21:47:57;;;;;;;2.40;1.70;;;;;;;23.00;56.18;100882.50;10424469;27;96620;-80
2023/07/30 21:53:02;;;;;;;2.60;1.90;;;;;;;23.12;55.83;100880.66;10383268;28;97355;-80
2023/07/30 21:58:07;;;;;;;3.25;1.77;;;;;;;23.01;56.20;100878.00;10382992;28;97138;-80
2023/07/30 22:03:11;;;;;;;3.00;1.70;;;;;;;23.20;55.21;100876.38;10382729;28;96842;-80
2023/07/30 22:08:14;;;;;;;5.27;1.90;;;;;;;23.10;55.47;100883.47;10382304;28;96838;-80
2023/07/30 22:13:19;;;;;;;3.03;1.80;;;;;;;22.90;56.17;100876.19;10382436;28;96591;-80
2023/07/30 22:18:22;;;;;;;3.97;1.63;;;;;;;22.69;56.64;100885.06;10381283;28;97563;-80
2023/07/30 22:23:26;;;;;;;4.03;2.10;;;;;;;22.40;57.50;100885.53;10381815;28;97329;-80
2023/07/30 22:28:31;;;;;;;3.33;1.95;;;;;;;22.55;57.11;100875.44;10382002;28;96877;-80
2023/07/30 22:33:34;;;;;;;3.90;1.80;;;;;;;22.23;57.94;100882.47;10381970;28;96786;-80
2023/07/30 22:38:37;;;;;;;5.35;2.28;;;;;;;22.20;58.27;100880.88;10381535;28;96820;-80
2023/07/30 22:43:42;;;;;;;3.30;1.80;;;;;;;22.35;57.68;100894.94;10381105;28;96683;-80
2023/07/30 22:48:46;;;;;;;2.30;1.65;;;;;;;22.35;57.38;100876.97;10381373;28;97331;-80
2023/07/30 22:53:50;;;;;;;2.80;1.58;;;;;;;22.39;57.55;100878.47;10392082;28;97726;-80
2023/07/30 22:58:54;;;;;;;6.20;2.22;;;;;;;22.05;58.26;100882.06;10398271;27;96727;-80
2023/07/30 23:03:58;;;;;;;2.50;1.67;;;;;;;21.91;58.64;100884.91;10380514;28;97004;-80
2023/07/30 23:09:01;;;;;;;2.05;1.50;;;;;;;21.78;59.06;100880.59;10380833;28;96602;-80
2023/07/30 23:14:09;;;;;;;2.17;1.58;;;;;;;21.75;59.10;100894.22;10380909;28;96677;-80
2023/07/30 23:19:12;;;;;;;2.55;1.80;;;;;;;21.78;59.42;100891.31;10331105;22;96796;-80
2023/07/30 23:24:16;;;;;;;3.33;1.97;;;;;;;21.59;59.54;100888.31;10297343;28;97988;-80
2023/07/30 23:29:20;;;;;;;3.17;1.90;;;;;;;21.83;59.08;100889.97;10297088;28;96645;-80
2023/07/30 23:34:24;;;;;;;2.83;1.70;;;;;;;21.81;59.10;100891.09;10329744;28;97153;-80
2023/07/30 23:39:27;;;;;;;3.78;2.00;;;;;;;21.59;59.69;100891.84;10297382;28;98054;-80
2023/07/30 23:44:32;;;;;;;3.47;1.75;;;;;;;21.64;59.63;100896.88;10297213;28;97521;-80
2023/07/30 23:49:35;;;;;;;3.05;1.90;;;;;;;21.54;59.60;100898.53;10297040;28;97506;-80
2023/07/30 23:54:39;;;;;;;3.60;1.70;;;;;;;21.55;59.82;100902.91;10296711;28;96756;-80
2023/07/30 23:59:43;;;;;;;3.78;2.22;;;;;;;21.61;59.55;100894.38;10296935;28;97714;-80
